sensor_id;sensor_type;location;lat;lon;timestamp;pressure;altitude;pressure_sealevel;temperature;humidity
54329;BME280;40710;51.120;13.136;2023-03-23T00:01:31;98565.31;;;16.87;44.39
54329;BME280;40710;51.120;13.136;2023-03-23T00:04:01;98557.03;;;16.99;44.66
54329;BME280;40710;51.120;13.136;2023-03-23T00:06:27;98560.09;;;16.95;44.97
54329;BME280;40710;51.120;13.136;2023-03-23T00:08:54;98559.41;;;16.93;44.39
54329;BME280;40710;51.120;13.136;2023-03-23T00:11:28;98558.06;;;17.36;43.55
54329;BME280;40710;51.120;13.136;2023-03-23T00:13:53;98555.22;;;17.00;44.02
54329;BME280;40710;51.120;13.136;2023-03-23T00:16:20;98564.84;;;16.81;44.22
54329;BME280;40710;51.120;13.136;2023-03-23T00:18:53;98567.94;;;15.87;45.64
54329;BME280;40710;51.120;13.136;2023-03-23T00:21:26;98557.81;;;17.19;43.62
54329;BME280;40710;51.120;13.136;2023-03-23T00:23:57;98555.06;;;17.11;43.49
54329;BME280;40710;51.120;13.136;2023-03-23T00:26:23;98554.63;;;17.16;43.20
54329;BME280;40710;51.120;13.136;2023-03-23T00:28:52;98547.94;;;17.02;43.20
54329;BME280;40710;51.120;13.136;2023-03-23T00:31:17;98537.78;;;17.35;42.65
54329;BME280;40710;51.120;13.136;2023-03-23T00:33:41;98542.88;;;17.66;41.93
54329;BME280;40710;51.120;13.136;2023-03-23T00:36:07;98540.44;;;17.35;42.24
54329;BME280;40710;51.120;13.136;2023-03-23T00:38:32;98527.69;;;17.01;42.72
54329;BME280;40710;51.120;13.136;2023-03-23T00:40:57;98527.09;;;17.82;41.13
54329;BME280;40710;51.120;13.136;2023-03-23T00:43:21;98515.25;;;17.76;41.02
54329;BME280;40710;51.120;13.136;2023-03-23T00:45:48;98523.41;;;17.37;41.67
54329;BME280;40710;51.120;13.136;2023-03-23T00:48:16;98520.44;;;17.41;41.97
54329;BME280;40710;51.120;13.136;2023-03-23T00:50:41;98508.22;;;17.57;41.64
54329;BME280;40710;51.120;13.136;2023-03-23T00:53:06;98509.88;;;17.31;41.82
54329;BME280;40710;51.120;13.136;2023-03-23T00:55:30;98515.09;;;17.13;42.49
54329;BME280;40710;51.120;13.136;2023-03-23T00:57:55;98511.38;;;17.33;42.03
54329;BME280;40710;51.120;13.136;2023-03-23T01:00:20;98503.94;;;17.09;42.45
54329;BME280;40710;51.120;13.136;2023-03-23T01:02:45;98511.91;;;16.70;43.10
54329;BME280;40710;51.120;13.136;2023-03-23T01:05:11;98500.63;;;16.49;43.60
54329;BME280;40710;51.120;13.136;2023-03-23T01:07:35;98499.94;;;17.23;42.32
54329;BME280;40710;51.120;13.136;2023-03-23T01:10:00;98499.19;;;17.03;42.84
54329;BME280;40710;51.120;13.136;2023-03-23T01:12:26;98497.97;;;17.35;41.88
54329;BME280;40710;51.120;13.136;2023-03-23T01:14:50;98493.66;;;16.87;42.75
54329;BME280;40710;51.120;13.136;2023-03-23T01:17:15;98492.75;;;17.43;42.04
54329;BME280;40710;51.120;13.136;2023-03-23T01:19:40;98493.19;;;17.38;41.88
54329;BME280;40710;51.120;13.136;2023-03-23T01:22:06;98493.75;;;16.95;42.80
54329;BME280;40710;51.120;13.136;2023-03-23T01:24:31;98488.72;;;16.82;42.59
54329;BME280;40710;51.120;13.136;2023-03-23T01:26:55;98482.31;;;16.75;43.11
54329;BME280;40710;51.120;13.136;2023-03-23T01:29:20;98490.88;;;16.59;42.89
54329;BME280;40710;51.120;13.136;2023-03-23T01:31:44;98480.47;;;17.05;42.45
54329;BME280;40710;51.120;13.136;2023-03-23T01:34:10;98479.09;;;16.81;42.63
54329;BME280;40710;51.120;13.136;2023-03-23T01:36:34;98473.38;;;16.95;42.80
54329;BME280;40710;51.120;13.136;2023-03-23T01:39:00;98477.06;;;17.22;42.21
54329;BME280;40710;51.120;13.136;2023-03-23T01:41:27;98482.44;;;17.03;42.14
54329;BME280;40710;51.120;13.136;2023-03-23T01:44:00;98483.31;;;17.31;41.46
54329;BME280;40710;51.120;13.136;2023-03-23T01:46:27;98481.56;;;17.12;42.02
54329;BME280;40710;51.120;13.136;2023-03-23T01:48:52;98488.47;;;16.46;42.90
54329;BME280;40710;51.120;13.136;2023-03-23T01:51:19;98490.44;;;16.54;42.79
54329;BME280;40710;51.120;13.136;2023-03-23T01:53:57;98492.22;;;16.82;42.59
54329;BME280;40710;51.120;13.136;2023-03-23T01:56:27;98477.50;;;17.45;41.07
54329;BME280;40710;51.120;13.136;2023-03-23T01:58:54;98480.06;;;17.65;40.61
54329;BME280;40710;51.120;13.136;2023-03-23T02:01:20;98470.97;;;17.67;40.74
54329;BME280;40710;51.120;13.136;2023-03-23T02:03:49;98469.84;;;17.42;40.81
54329;BME280;40710;51.120;13.136;2023-03-23T02:06:14;98478.56;;;16.68;42.07
54329;BME280;40710;51.120;13.136;2023-03-23T02:08:41;98473.56;;;17.22;41.71
54329;BME280;40710;51.120;13.136;2023-03-23T02:11:12;98473.31;;;17.15;41.77
54329;BME280;40710;51.120;13.136;2023-03-23T02:13:38;98469.91;;;17.23;41.71
54329;BME280;40710;51.120;13.136;2023-03-23T02:22:16;98466.94;;;16.78;42.18
54329;BME280;40710;51.120;13.136;2023-03-23T02:30:43;98460.72;;;16.50;42.04
54329;BME280;40710;51.120;13.136;2023-03-23T02:36:34;98456.81;;;16.05;43.21
54329;BME280;40710;51.120;13.136;2023-03-23T02:39:10;98451.75;;;16.90;41.90
54329;BME280;40710;51.120;13.136;2023-03-23T02:41:43;98442.88;;;17.37;40.86
54329;BME280;40710;51.120;13.136;2023-03-23T02:44:12;98451.78;;;16.41;42.35
54329;BME280;40710;51.120;13.136;2023-03-23T02:46:39;98437.25;;;17.12;41.40
54329;BME280;40710;51.120;13.136;2023-03-23T02:49:06;98433.38;;;17.07;41.42
54329;BME280;40710;51.120;13.136;2023-03-23T02:51:34;98435.28;;;17.14;41.10
54329;BME280;40710;51.120;13.136;2023-03-23T02:54:01;98434.69;;;16.93;41.35
54329;BME280;40710;51.120;13.136;2023-03-23T02:56:29;98429.03;;;17.43;40.87
54329;BME280;40710;51.120;13.136;2023-03-23T02:58:55;98418.34;;;17.25;40.74
54329;BME280;40710;51.120;13.136;2023-03-23T03:03:52;98410.44;;;17.43;40.36
54329;BME280;40710;51.120;13.136;2023-03-23T03:06:49;98408.34;;;17.37;40.88
54329;BME280;40710;51.120;13.136;2023-03-23T03:09:42;98414.59;;;16.90;42.02
54329;BME280;40710;51.120;13.136;2023-03-23T03:15:30;98418.44;;;17.33;40.91
54329;BME280;40710;51.120;13.136;2023-03-23T03:20:28;98426.31;;;16.78;41.91
54329;BME280;40710;51.120;13.136;2023-03-23T03:22:56;98419.59;;;16.93;42.10
54329;BME280;40710;51.120;13.136;2023-03-23T03:25:21;98414.78;;;17.07;41.84
54329;BME280;40710;51.120;13.136;2023-03-23T03:27:48;98413.00;;;17.53;41.22
54329;BME280;40710;51.120;13.136;2023-03-23T03:30:19;98415.56;;;16.79;42.48
54329;BME280;40710;51.120;13.136;2023-03-23T03:32:49;98402.81;;;17.76;40.75
54329;BME280;40710;51.120;13.136;2023-03-23T03:35:18;98417.75;;;17.31;41.43
54329;BME280;40710;51.120;13.136;2023-03-23T03:37:43;98428.84;;;15.62;44.90
54329;BME280;40710;51.120;13.136;2023-03-23T03:40:14;98407.91;;;17.87;41.28
54329;BME280;40710;51.120;13.136;2023-03-23T03:42:42;98432.25;;;15.84;44.88
54329;BME280;40710;51.120;13.136;2023-03-23T03:45:13;98430.34;;;15.45;46.18
54329;BME280;40710;51.120;13.136;2023-03-23T03:47:38;98434.41;;;15.59;46.00
54329;BME280;40710;51.120;13.136;2023-03-23T03:50:03;98422.09;;;15.39;46.13
54329;BME280;40710;51.120;13.136;2023-03-23T03:52:28;98416.09;;;15.37;46.53
54329;BME280;40710;51.120;13.136;2023-03-23T03:54:53;98413.84;;;16.12;45.53
54329;BME280;40710;51.120;13.136;2023-03-23T03:57:18;98421.78;;;15.32;47.38
54329;BME280;40710;51.120;13.136;2023-03-23T03:59:42;98410.94;;;15.85;46.12
54329;BME280;40710;51.120;13.136;2023-03-23T04:02:08;98405.97;;;15.61;46.73
54329;BME280;40710;51.120;13.136;2023-03-23T04:04:32;98408.22;;;15.66;46.80
54329;BME280;40710;51.120;13.136;2023-03-23T04:06:57;98406.53;;;15.65;46.84
54329;BME280;40710;51.120;13.136;2023-03-23T04:09:21;98404.94;;;15.83;46.15
54329;BME280;40710;51.120;13.136;2023-03-23T04:11:46;98417.34;;;15.32;47.32
54329;BME280;40710;51.120;13.136;2023-03-23T04:14:11;98415.78;;;14.89;48.18
54329;BME280;40710;51.120;13.136;2023-03-23T04:16:36;98419.84;;;14.93;48.17
54329;BME280;40710;51.120;13.136;2023-03-23T04:19:00;98422.63;;;14.92;48.28
54329;BME280;40710;51.120;13.136;2023-03-23T04:21:25;98415.28;;;15.46;47.05
54329;BME280;40710;51.120;13.136;2023-03-23T04:23:52;98432.16;;;15.45;47.16
54329;BME280;40710;51.120;13.136;2023-03-23T04:26:18;98423.25;;;15.65;46.82
54329;BME280;40710;51.120;13.136;2023-03-23T04:28:42;98418.72;;;15.77;46.83
54329;BME280;40710;51.120;13.136;2023-03-23T04:31:07;98415.50;;;16.13;46.61
54329;BME280;40710;51.120;13.136;2023-03-23T04:33:33;98402.56;;;16.10;45.96
54329;BME280;40710;51.120;13.136;2023-03-23T04:36:00;98417.63;;;15.99;46.02
54329;BME280;40710;51.120;13.136;2023-03-23T04:38:25;98405.16;;;15.70;46.48
54329;BME280;40710;51.120;13.136;2023-03-23T04:40:51;98401.31;;;15.75;46.50
54329;BME280;40710;51.120;13.136;2023-03-23T04:43:15;98409.53;;;16.11;46.52
54329;BME280;40710;51.120;13.136;2023-03-23T04:45:40;98396.28;;;16.11;46.55
54329;BME280;40710;51.120;13.136;2023-03-23T04:48:09;98415.75;;;15.61;47.41
54329;BME280;40710;51.120;13.136;2023-03-23T04:50:34;98410.88;;;15.66;47.03
54329;BME280;40710;51.120;13.136;2023-03-23T04:53:01;98416.66;;;15.91;46.60
54329;BME280;40710;51.120;13.136;2023-03-23T04:55:30;98413.50;;;15.56;47.67
54329;BME280;40710;51.120;13.136;2023-03-23T04:57:55;98427.81;;;15.94;46.61
54329;BME280;40710;51.120;13.136;2023-03-23T05:00:20;98418.97;;;15.64;47.43
54329;BME280;40710;51.120;13.136;2023-03-23T05:02:46;98421.34;;;15.67;47.38
54329;BME280;40710;51.120;13.136;2023-03-23T05:05:14;98421.66;;;16.23;46.29
54329;BME280;40710;51.120;13.136;2023-03-23T05:07:39;98411.88;;;15.84;46.49
54329;BME280;40710;51.120;13.136;2023-03-23T05:10:05;98415.53;;;16.32;45.91
54329;BME280;40710;51.120;13.136;2023-03-23T05:12:30;98419.28;;;16.39;45.56
54329;BME280;40710;51.120;13.136;2023-03-23T05:14:55;98425.50;;;15.70;46.68
54329;BME280;40710;51.120;13.136;2023-03-23T05:17:19;98419.84;;;16.14;46.57
54329;BME280;40710;51.120;13.136;2023-03-23T05:19:44;98422.34;;;15.36;47.04
54329;BME280;40710;51.120;13.136;2023-03-23T05:22:11;98423.69;;;15.61;46.91
54329;BME280;40710;51.120;13.136;2023-03-23T05:24:37;98418.72;;;16.36;45.86
54329;BME280;40710;51.120;13.136;2023-03-23T05:27:01;98438.34;;;15.24;48.03
54329;BME280;40710;51.120;13.136;2023-03-23T05:29:27;98450.44;;;15.17;48.46
54329;BME280;40710;51.120;13.136;2023-03-23T05:31:54;98432.69;;;15.99;46.99
54329;BME280;40710;51.120;13.136;2023-03-23T05:34:20;98432.63;;;17.14;45.98
54329;BME280;40710;51.120;13.136;2023-03-23T05:36:45;98433.94;;;15.95;46.44
54329;BME280;40710;51.120;13.136;2023-03-23T05:39:11;98445.66;;;15.92;46.81
54329;BME280;40710;51.120;13.136;2023-03-23T05:41:35;98432.22;;;16.42;45.48
54329;BME280;40710;51.120;13.136;2023-03-23T05:44:00;98458.38;;;15.17;48.03
54329;BME280;40710;51.120;13.136;2023-03-23T05:46:25;98474.72;;;15.22;48.00
54329;BME280;40710;51.120;13.136;2023-03-23T05:48:49;98465.94;;;15.22;47.74
54329;BME280;40710;51.120;13.136;2023-03-23T05:51:14;98451.69;;;15.63;47.14
54329;BME280;40710;51.120;13.136;2023-03-23T05:53:39;98437.72;;;15.42;47.51
54329;BME280;40710;51.120;13.136;2023-03-23T05:56:04;98441.41;;;15.60;46.59
54329;BME280;40710;51.120;13.136;2023-03-23T05:58:29;98438.28;;;15.45;47.20
54329;BME280;40710;51.120;13.136;2023-03-23T06:00:54;98444.13;;;15.80;46.59
54329;BME280;40710;51.120;13.136;2023-03-23T06:03:19;98440.91;;;15.86;46.64
54329;BME280;40710;51.120;13.136;2023-03-23T06:05:45;98436.16;;;16.09;45.74
54329;BME280;40710;51.120;13.136;2023-03-23T06:08:10;98438.81;;;16.19;45.62
54329;BME280;40710;51.120;13.136;2023-03-23T06:10:34;98444.78;;;16.60;45.70
54329;BME280;40710;51.120;13.136;2023-03-23T06:13:00;98436.53;;;16.63;44.93
54329;BME280;40710;51.120;13.136;2023-03-23T06:15:25;98447.72;;;16.37;45.23
54329;BME280;40710;51.120;13.136;2023-03-23T06:17:53;98447.72;;;16.37;44.89
54329;BME280;40710;51.120;13.136;2023-03-23T06:20:20;98461.00;;;16.37;45.20
54329;BME280;40710;51.120;13.136;2023-03-23T06:22:45;98451.94;;;16.11;45.32
54329;BME280;40710;51.120;13.136;2023-03-23T06:25:10;98460.00;;;16.09;45.29
54329;BME280;40710;51.120;13.136;2023-03-23T06:27:37;98464.63;;;15.97;45.83
54329;BME280;40710;51.120;13.136;2023-03-23T06:30:03;98471.59;;;16.18;45.68
54329;BME280;40710;51.120;13.136;2023-03-23T06:32:30;98474.09;;;16.00;45.67
54329;BME280;40710;51.120;13.136;2023-03-23T06:34:55;98470.91;;;16.06;45.97
54329;BME280;40710;51.120;13.136;2023-03-23T06:37:21;98472.16;;;16.21;45.47
54329;BME280;40710;51.120;13.136;2023-03-23T06:39:45;98472.75;;;16.44;45.07
54329;BME280;40710;51.120;13.136;2023-03-23T06:42:11;98464.19;;;16.21;45.11
54329;BME280;40710;51.120;13.136;2023-03-23T06:44:36;98483.19;;;16.85;44.44
54329;BME280;40710;51.120;13.136;2023-03-23T06:47:00;98478.16;;;16.53;44.96
54329;BME280;40710;51.120;13.136;2023-03-23T06:49:26;98487.09;;;16.13;45.43
54329;BME280;40710;51.120;13.136;2023-03-23T06:51:51;98503.84;;;16.42;45.31
54329;BME280;40710;51.120;13.136;2023-03-23T06:54:15;98484.44;;;16.61;44.97
54329;BME280;40710;51.120;13.136;2023-03-23T06:56:40;98485.41;;;16.60;45.22
54329;BME280;40710;51.120;13.136;2023-03-23T06:59:05;98490.56;;;16.23;46.01
54329;BME280;40710;51.120;13.136;2023-03-23T07:01:29;98484.69;;;16.78;45.36
54329;BME280;40710;51.120;13.136;2023-03-23T07:03:54;98504.38;;;16.46;46.10
54329;BME280;40710;51.120;13.136;2023-03-23T07:06:19;98504.28;;;16.38;46.27
54329;BME280;40710;51.120;13.136;2023-03-23T07:08:44;98501.31;;;16.51;47.28
54329;BME280;40710;51.120;13.136;2023-03-23T07:11:09;98501.88;;;16.15;48.02
54329;BME280;40710;51.120;13.136;2023-03-23T07:13:34;98498.97;;;16.57;47.14
54329;BME280;40710;51.120;13.136;2023-03-23T07:16:00;98505.31;;;17.13;46.66
54329;BME280;40710;51.120;13.136;2023-03-23T07:18:24;98513.88;;;16.39;47.54
54329;BME280;40710;51.120;13.136;2023-03-23T07:20:50;98507.19;;;16.25;48.31
54329;BME280;40710;51.120;13.136;2023-03-23T07:23:16;98520.84;;;16.30;48.84
54329;BME280;40710;51.120;13.136;2023-03-23T07:25:42;98512.19;;;16.77;47.61
54329;BME280;40710;51.120;13.136;2023-03-23T07:28:07;98511.66;;;16.83;47.38
54329;BME280;40710;51.120;13.136;2023-03-23T07:30:32;98521.56;;;16.71;48.03
54329;BME280;40710;51.120;13.136;2023-03-23T07:32:57;98512.06;;;16.69;48.12
54329;BME280;40710;51.120;13.136;2023-03-23T07:35:23;98520.84;;;16.30;48.74
54329;BME280;40710;51.120;13.136;2023-03-23T07:37:47;98522.25;;;16.63;48.53
54329;BME280;40710;51.120;13.136;2023-03-23T07:40:13;98515.16;;;16.84;47.38
54329;BME280;40710;51.120;13.136;2023-03-23T07:42:42;98520.44;;;16.74;47.60
54329;BME280;40710;51.120;13.136;2023-03-23T07:45:08;98529.38;;;16.73;48.41
54329;BME280;40710;51.120;13.136;2023-03-23T07:47:33;98528.56;;;16.92;48.41
54329;BME280;40710;51.120;13.136;2023-03-23T07:49:58;98536.06;;;15.99;50.12
54329;BME280;40710;51.120;13.136;2023-03-23T07:52:22;98545.66;;;15.90;50.31
54329;BME280;40710;51.120;13.136;2023-03-23T07:54:48;98532.47;;;16.29;49.59
54329;BME280;40710;51.120;13.136;2023-03-23T07:57:12;98542.78;;;16.42;49.76
54329;BME280;40710;51.120;13.136;2023-03-23T07:59:37;98549.88;;;15.72;51.69
54329;BME280;40710;51.120;13.136;2023-03-23T08:02:01;98536.78;;;16.40;50.27
54329;BME280;40710;51.120;13.136;2023-03-23T08:04:26;98572.50;;;15.55;52.28
54329;BME280;40710;51.120;13.136;2023-03-23T08:06:51;98559.41;;;15.53;52.81
54329;BME280;40710;51.120;13.136;2023-03-23T08:09:16;98552.44;;;16.43;50.84
54329;BME280;40710;51.120;13.136;2023-03-23T08:11:40;98560.06;;;16.17;51.58
54329;BME280;40710;51.120;13.136;2023-03-23T08:14:05;98554.44;;;15.91;52.92
54329;BME280;40710;51.120;13.136;2023-03-23T08:16:29;98558.59;;;15.93;53.95
54329;BME280;40710;51.120;13.136;2023-03-23T08:18:54;98560.22;;;15.44;54.04
54329;BME280;40710;51.120;13.136;2023-03-23T08:21:19;98545.53;;;16.01;52.71
54329;BME280;40710;51.120;13.136;2023-03-23T08:23:45;98549.13;;;15.60;53.45
54329;BME280;40710;51.120;13.136;2023-03-23T08:26:09;98561.19;;;15.43;54.14
54329;BME280;40710;51.120;13.136;2023-03-23T08:28:36;98566.94;;;15.48;54.11
54329;BME280;40710;51.120;13.136;2023-03-23T08:31:06;98560.91;;;15.46;54.20
54329;BME280;40710;51.120;13.136;2023-03-23T08:33:31;98561.69;;;15.98;53.96
54329;BME280;40710;51.120;13.136;2023-03-23T08:35:56;98553.44;;;15.92;53.08
54329;BME280;40710;51.120;13.136;2023-03-23T08:38:21;98550.00;;;16.11;53.51
54329;BME280;40710;51.120;13.136;2023-03-23T08:40:46;98559.16;;;15.97;53.44
54329;BME280;40710;51.120;13.136;2023-03-23T08:43:11;98551.91;;;15.89;53.20
54329;BME280;40710;51.120;13.136;2023-03-23T08:45:36;98574.47;;;15.22;54.37
54329;BME280;40710;51.120;13.136;2023-03-23T08:48:00;98553.47;;;15.70;54.15
54329;BME280;40710;51.120;13.136;2023-03-23T08:50:27;98555.22;;;16.41;52.83
54329;BME280;40710;51.120;13.136;2023-03-23T08:52:53;98572.13;;;15.07;55.37
54329;BME280;40710;51.120;13.136;2023-03-23T08:55:19;98570.84;;;15.02;56.16
54329;BME280;40710;51.120;13.136;2023-03-23T08:57:44;98560.19;;;16.25;53.25
54329;BME280;40710;51.120;13.136;2023-03-23T09:00:12;98559.13;;;16.57;53.73
54329;BME280;40710;51.120;13.136;2023-03-23T09:02:38;98562.16;;;16.13;54.89
54329;BME280;40710;51.120;13.136;2023-03-23T09:05:03;98570.41;;;16.20;54.59
54329;BME280;40710;51.120;13.136;2023-03-23T09:07:28;98567.41;;;15.94;55.82
54329;BME280;40710;51.120;13.136;2023-03-23T09:09:52;98567.88;;;16.28;54.80
54329;BME280;40710;51.120;13.136;2023-03-23T09:12:17;98564.00;;;16.42;53.83
54329;BME280;40710;51.120;13.136;2023-03-23T09:14:41;98571.31;;;15.99;55.56
54329;BME280;40710;51.120;13.136;2023-03-23T09:17:06;98566.78;;;16.40;54.41
54329;BME280;40710;51.120;13.136;2023-03-23T09:19:33;98560.38;;;16.23;55.16
54329;BME280;40710;51.120;13.136;2023-03-23T09:21:58;98556.31;;;16.29;54.39
54329;BME280;40710;51.120;13.136;2023-03-23T09:24:22;98564.50;;;16.06;55.24
54329;BME280;40710;51.120;13.136;2023-03-23T09:26:47;98565.47;;;16.05;55.60
54329;BME280;40710;51.120;13.136;2023-03-23T09:29:12;98562.34;;;16.51;54.65
54329;BME280;40710;51.120;13.136;2023-03-23T09:31:37;98554.88;;;16.05;55.11
54329;BME280;40710;51.120;13.136;2023-03-23T09:34:02;98529.06;;;17.52;51.84
54329;BME280;40710;51.120;13.136;2023-03-23T09:36:28;98528.25;;;16.95;52.41
54329;BME280;40710;51.120;13.136;2023-03-23T09:38:56;98510.00;;;18.84;47.85
54329;BME280;40710;51.120;13.136;2023-03-23T09:41:48;98512.94;;;17.64;50.11
54329;BME280;40710;51.120;13.136;2023-03-23T09:44:22;98531.59;;;17.44;50.78
54329;BME280;40710;51.120;13.136;2023-03-23T09:47:05;98532.81;;;17.60;51.02
54329;BME280;40710;51.120;13.136;2023-03-23T09:49:50;98537.56;;;17.66;50.38
54329;BME280;40710;51.120;13.136;2023-03-23T09:52:18;98534.88;;;17.28;50.88
54329;BME280;40710;51.120;13.136;2023-03-23T09:54:47;98522.13;;;18.43;49.59
54329;BME280;40710;51.120;13.136;2023-03-23T10:00:00;98544.34;;;16.64;52.58
54329;BME280;40710;51.120;13.136;2023-03-23T10:02:36;98543.91;;;16.98;51.08
54329;BME280;40710;51.120;13.136;2023-03-23T10:05:25;98532.81;;;18.15;49.73
54329;BME280;40710;51.120;13.136;2023-03-23T10:07:51;98533.63;;;17.32;50.98
54329;BME280;40710;51.120;13.136;2023-03-23T10:10:16;98534.97;;;16.99;51.02
54329;BME280;40710;51.120;13.136;2023-03-23T10:12:49;98547.81;;;16.84;51.80
54329;BME280;40710;51.120;13.136;2023-03-23T10:15:25;98543.94;;;17.35;49.92
54329;BME280;40710;51.120;13.136;2023-03-23T10:18:01;98543.56;;;17.30;51.14
54329;BME280;40710;51.120;13.136;2023-03-23T10:20:35;98550.34;;;16.86;51.66
54329;BME280;40710;51.120;13.136;2023-03-23T10:28:52;98539.69;;;17.15;51.85
54329;BME280;40710;51.120;13.136;2023-03-23T10:31:24;98544.47;;;17.39;50.93
54329;BME280;40710;51.120;13.136;2023-03-23T10:33:56;98537.94;;;17.71;50.39
54329;BME280;40710;51.120;13.136;2023-03-23T10:36:27;98542.53;;;16.94;51.67
54329;BME280;40710;51.120;13.136;2023-03-23T10:39:10;98534.97;;;17.46;50.24
54329;BME280;40710;51.120;13.136;2023-03-23T10:41:37;98541.34;;;17.16;50.56
54329;BME280;40710;51.120;13.136;2023-03-23T10:44:10;98534.16;;;18.01;49.83
54329;BME280;40710;51.120;13.136;2023-03-23T10:46:49;98532.69;;;18.35;48.99
54329;BME280;40710;51.120;13.136;2023-03-23T10:49:27;98522.03;;;18.35;48.54
54329;BME280;40710;51.120;13.136;2023-03-23T10:54:49;98542.22;;;17.82;50.52
54329;BME280;40710;51.120;13.136;2023-03-23T10:57:24;98534.56;;;17.41;51.16
54329;BME280;40710;51.120;13.136;2023-03-23T10:59:49;98547.72;;;17.33;53.78
54329;BME280;40710;51.120;13.136;2023-03-23T11:02:17;98558.59;;;16.92;54.17
54329;BME280;40710;51.120;13.136;2023-03-23T11:04:46;98553.66;;;17.07;54.81
54329;BME280;40710;51.120;13.136;2023-03-23T11:07:20;98558.41;;;17.13;54.12
54329;BME280;40710;51.120;13.136;2023-03-23T11:09:55;98565.00;;;17.09;55.06
54329;BME280;40710;51.120;13.136;2023-03-23T11:12:21;98574.63;;;17.10;55.21
54329;BME280;40710;51.120;13.136;2023-03-23T11:14:47;98591.13;;;16.85;56.44
54329;BME280;40710;51.120;13.136;2023-03-23T11:17:26;98589.59;;;16.92;56.78
54329;BME280;40710;51.120;13.136;2023-03-23T11:19:52;98596.63;;;16.23;58.08
54329;BME280;40710;51.120;13.136;2023-03-23T11:22:31;98606.78;;;16.18;58.04
54329;BME280;40710;51.120;13.136;2023-03-23T11:25:00;98581.16;;;17.16;57.14
54329;BME280;40710;51.120;13.136;2023-03-23T11:27:28;98589.81;;;16.40;58.32
54329;BME280;40710;51.120;13.136;2023-03-23T11:29:55;98591.78;;;16.38;58.72
54329;BME280;40710;51.120;13.136;2023-03-23T11:32:29;98576.03;;;16.95;57.62
54329;BME280;40710;51.120;13.136;2023-03-23T11:35:00;98580.19;;;17.07;55.91
54329;BME280;40710;51.120;13.136;2023-03-23T11:37:35;98575.28;;;16.15;58.24
54329;BME280;40710;51.120;13.136;2023-03-23T11:42:46;98584.34;;;16.22;58.44
54329;BME280;40710;51.120;13.136;2023-03-23T11:45:19;98591.38;;;16.62;57.83
54329;BME280;40710;51.120;13.136;2023-03-23T11:47:56;98569.88;;;16.65;58.44
54329;BME280;40710;51.120;13.136;2023-03-23T11:50:29;98571.28;;;16.69;57.94
54329;BME280;40710;51.120;13.136;2023-03-23T11:55:49;98575.47;;;16.81;57.36
54329;BME280;40710;51.120;13.136;2023-03-23T11:58:18;98577.97;;;17.12;56.85
54329;BME280;40710;51.120;13.136;2023-03-23T12:01:16;98573.22;;;16.96;56.48
54329;BME280;40710;51.120;13.136;2023-03-23T12:06:56;98612.03;;;16.68;56.65
54329;BME280;40710;51.120;13.136;2023-03-23T12:12:20;98572.22;;;16.58;55.92
54329;BME280;40710;51.120;13.136;2023-03-23T12:15:01;98595.25;;;16.38;56.97
54329;BME280;40710;51.120;13.136;2023-03-23T12:23:21;98577.44;;;16.99;55.75
54329;BME280;40710;51.120;13.136;2023-03-23T12:29:08;98563.91;;;17.77;54.72
54329;BME280;40710;51.120;13.136;2023-03-23T12:31:49;98565.81;;;17.94;53.17
54329;BME280;40710;51.120;13.136;2023-03-23T12:34:26;98564.84;;;16.81;55.59
54329;BME280;40710;51.120;13.136;2023-03-23T12:37:28;98575.91;;;17.53;53.84
54329;BME280;40710;51.120;13.136;2023-03-23T12:43:05;98560.19;;;17.70;53.61
54329;BME280;40710;51.120;13.136;2023-03-23T12:46:01;98556.16;;;17.66;52.75
54329;BME280;40710;51.120;13.136;2023-03-23T12:48:33;98571.53;;;17.15;54.09
54329;BME280;40710;51.120;13.136;2023-03-23T12:51:21;98567.97;;;16.87;54.75
54329;BME280;40710;51.120;13.136;2023-03-23T12:59:09;98562.50;;;17.45;53.67
54329;BME280;40710;51.120;13.136;2023-03-23T13:01:43;98545.19;;;17.41;53.04
54329;BME280;40710;51.120;13.136;2023-03-23T13:04:18;98529.19;;;18.34;51.62
54329;BME280;40710;51.120;13.136;2023-03-23T13:06:45;98540.44;;;17.35;53.74
54329;BME280;40710;51.120;13.136;2023-03-23T13:11:59;98520.22;;;18.35;51.44
54329;BME280;40710;51.120;13.136;2023-03-23T13:17:32;98541.81;;;17.49;52.83
54329;BME280;40710;51.120;13.136;2023-03-23T13:20:16;98531.19;;;17.49;52.99
54329;BME280;40710;51.120;13.136;2023-03-23T13:22:54;98517.63;;;18.61;50.22
54329;BME280;40710;51.120;13.136;2023-03-23T13:28:04;98513.28;;;18.06;49.69
54329;BME280;40710;51.120;13.136;2023-03-23T13:30:29;98513.53;;;17.85;49.86
54329;BME280;40710;51.120;13.136;2023-03-23T13:33:12;98497.88;;;17.54;50.93
54329;BME280;40710;51.120;13.136;2023-03-23T13:35:40;98489.66;;;18.57;48.58
54329;BME280;40710;51.120;13.136;2023-03-23T13:38:19;98473.94;;;19.93;45.30
54329;BME280;40710;51.120;13.136;2023-03-23T13:40:46;98495.03;;;19.36;46.00
54329;BME280;40710;51.120;13.136;2023-03-23T13:43:11;98465.16;;;20.26;43.61
54329;BME280;40710;51.120;13.136;2023-03-23T13:45:44;98474.09;;;19.92;43.47
54329;BME280;40710;51.120;13.136;2023-03-23T13:50:58;98468.84;;;20.41;42.15
54329;BME280;40710;51.120;13.136;2023-03-23T13:53:31;98447.63;;;20.15;42.64
54329;BME280;40710;51.120;13.136;2023-03-23T13:56:17;98458.63;;;21.02;40.95
54329;BME280;40710;51.120;13.136;2023-03-23T13:59:05;98461.81;;;20.24;41.60
54329;BME280;40710;51.120;13.136;2023-03-23T14:01:36;98457.91;;;21.17;40.37
54329;BME280;40710;51.120;13.136;2023-03-23T14:04:06;98473.63;;;19.54;42.39
54329;BME280;40710;51.120;13.136;2023-03-23T14:06:34;98459.78;;;20.17;41.50
54329;BME280;40710;51.120;13.136;2023-03-23T14:09:27;98443.94;;;21.54;39.44
54329;BME280;40710;51.120;13.136;2023-03-23T14:12:00;98466.16;;;20.41;41.38